EGOW

RAF Woodvale Airport

Southport, United Kingdom
TAF EGOW 221333Z 2215/2218 27012KT 9999 FEW018CB PROB40 TEMPO 2215/2218 3000 SHRASN SCT010 BKN018CB
Issued Valid From Valid To
Jan-22 @ 13:33 UTC
(3 hours ago)
Jan-22 @ 15:00 UTC
(2 hours ago)
Jan-22 @ 18:00 UTC
(in an hour)
Jan-22 @ 15:00 to Jan-22 @ 18:00
TAF EGOW 221333Z 2215/2218 27012KT 9999 FEW018CB
Wind Visibility Clouds
270° at 12 knots 10,000+ meters
  • Few at 1,800' AGL
Temporary  (Probability 40%) Jan-22 @ 15:00 to Jan-22 @ 18:00
PROB40 TEMPO 2215/2218 3000 SHRASN SCT010 BKN018CB
Visibility Clouds Conditions
2,993 meters
  • Scattered at 1,000' AGL
  • Broken at 1,800' AGL
  • Rain
  • Snow
TAF EGOW 221333Z 2215/2218 27012KT 9999 FEW018CB PROB40 TEMPO 2215/2218 3000 SHRASN SCT010 BKN018CB
Issued Jan-22 @ 13:33 UTC
(3 hours ago)
Valid From Jan-22 @ 15:00 UTC
(2 hours ago)
Valid To Jan-22 @ 18:00 UTC
(in an hour)
Jan-22 @ 15:00 - Jan-22 @ 18:00
Wind Visibility
270° at 12 knots 10,000+ meters
Clouds
  • Few at 1,800' AGL
Probability 40% Temporary Jan-22 @ 15:00 - Jan-22 @ 18:00
Clouds
  • Scattered at 1,000' AGL
  • Broken at 1,800' AGL
Conditions
  • Rain
  • Snow